Observation data for Tulia on 04/24/2019      Previous  Date  Next       Current Mesonet Observations  Soil Data  Daily Summary Page  Observations in Plain Language
KTIS 240500Z 03001KT 08/06 A3008 RMK A01 T00780057  RH  089%=      5-min Rain = 0
KTIS 240505Z 02003KT 07/05 A3007 RMK A01 T00730052  RH  088%=      5-min Rain = 0
KTIS 240510Z 01004KT 07/05 A3007 RMK A01 T00670048  RH  090%=      5-min Rain = 0
KTIS 240515Z 00005KT 06/05 A3006 RMK A01 T00630047  RH  091%=      5-min Rain = 0
KTIS 240520Z 35007KT 06/05 A3005 RMK A01 T00640048  RH  092%=      5-min Rain = 0
KTIS 240525Z 35008KT 07/05 A3005 RMK A01 T00650050  RH  092%=      5-min Rain = 0
KTIS 240530Z 35008KT 07/05 A3004 RMK A01 T00670051  RH  092%=      5-min Rain = 0
KTIS 240535Z 34009KT 07/05 A3004 RMK A01 T00670050  RH  091%=      5-min Rain = 0
KTIS 240540Z 34010KT 07/05 A3003 RMK A01 T00680052  RH  091%=      5-min Rain = 0
KTIS 240545Z 34010KT 07/05 A3003 RMK A01 T00700052  RH  090%=      5-min Rain = 0
KTIS 240550Z 34009KT 07/05 A3003 RMK A01 T00720052  RH  089%=      5-min Rain = 0
KTIS 240555Z 34009KT 07/05 A3003 RMK A01 T00710050  RH  089%=      5-min Rain = 0
KTIS 240600Z 33009KT 07/05 A3004 RMK A01 T00690050  RH  089%=      5-min Rain = 0
KTIS 240605Z 33009KT 07/05 A3003 RMK A01 T00690050  RH  089%=      5-min Rain = 0
KTIS 240610Z 33009KT 07/05 A3003 RMK A01 T00700049  RH  088%=      5-min Rain = 0
KTIS 240615Z 34008KT 07/05 A3003 RMK A01 T00680048  RH  088%=      5-min Rain = 0
KTIS 240620Z 34008KT 07/05 A3003 RMK A01 T00670047  RH  089%=      5-min Rain = 0
KTIS 240625Z 34007KT 07/05 A3003 RMK A01 T00660047  RH  089%=      5-min Rain = 0
KTIS 240630Z 34008KT 06/05 A3002 RMK A01 T00640045  RH  089%=      5-min Rain = 0
KTIS 240635Z 34008KT 06/04 A3003 RMK A01 T00630044  RH  090%=      5-min Rain = 0
KTIS 240640Z 33008KT 06/04 A3003 RMK A01 T00610043  RH  090%=      5-min Rain = 0
KTIS 240645Z 34009KT 06/04 A3002 RMK A01 T00600043  RH  090%=      5-min Rain = 0
KTIS 240650Z 34009KT 06/04 A3002 RMK A01 T00600041  RH  090%=      5-min Rain = 0
KTIS 240655Z 34009KT 06/04 A3002 RMK A01 T00580040  RH  090%=      5-min Rain = 0
KTIS 240700Z 33010KT 06/04 A3001 RMK A01 T00570040  RH  091%=      5-min Rain = 0
KTIS 240705Z 33010KT 06/04 A3001 RMK A01 T00560040  RH  091%=      5-min Rain = 0
KTIS 240710Z 33008KT 06/04 A3001 RMK A01 T00560039  RH  091%=      5-min Rain = 0
KTIS 240715Z 33008KT 06/04 A3001 RMK A01 T00550038  RH  091%=      5-min Rain = 0
KTIS 240720Z 34009KT 06/04 A30 RMK A01 T00560038  RH  090%=      5-min Rain = 0
KTIS 240725Z 33009KT 06/04 A3001 RMK A01 T00560036  RH  089%=      5-min Rain = 0
KTIS 240730Z 34008KT 06/04 A3001 RMK A01 T00550035  RH  089%=      5-min Rain = 0
KTIS 240735Z 34008KT 05/03 A3001 RMK A01 T00540034  RH  089%=      5-min Rain = 0
KTIS 240740Z 33007KT 05/03 A3001 RMK A01 T00520033  RH  089%=      5-min Rain = 0
KTIS 240745Z 33006KT 05/03 A3001 RMK A01 T00510032  RH  089%=      5-min Rain = 0
KTIS 240750Z 34007KT 05/03 A3001 RMK A01 T00500031  RH  089%=      5-min Rain = 0
KTIS 240755Z 33007KT 05/03 A3001 RMK A01 T00490031  RH  090%=      5-min Rain = 0
KTIS 240800Z 33007KT 05/03 A3001 RMK A01 T00490031  RH  090%=      5-min Rain = 0
KTIS 240805Z 33007KT 05/03 A3001 RMK A01 T00480030  RH  090%=      5-min Rain = 0
KTIS 240810Z 32005KT 05/03 A3001 RMK A01 T00470030  RH  090%=      5-min Rain = 0
KTIS 240815Z 32004KT 05/03 A3002 RMK A01 T00470030  RH  091%=      5-min Rain = 0
KTIS 240820Z 33004KT 05/03 A3002 RMK A01 T00470030  RH  091%=      5-min Rain = 0
KTIS 240825Z 33004KT 05/03 A3001 RMK A01 T00450029  RH  091%=      5-min Rain = 0
KTIS 240830Z 32003KT 04/03 A3001 RMK A01 T00440028  RH  091%=      5-min Rain = 0
KTIS 240835Z 33003KT 04/03 A3001 RMK A01 T00430027  RH  091%=      5-min Rain = 0
KTIS 240840Z 33002KT 04/03 A3001 RMK A01 T00420027  RH  091%=      5-min Rain = 0
KTIS 240845Z 32001KT 04/03 A3001 RMK A01 T00440029  RH  092%=      5-min Rain = 0
KTIS 240850Z 32000KT 05/03 A3001 RMK A01 T00460031  RH  092%=      5-min Rain = 0
KTIS 240855Z 32001KT 05/03 A3001 RMK A01 T00460030  RH  091%=      5-min Rain = 0
KTIS 240900Z 32000KT 05/03 A3001 RMK A01 T00450030  RH  092%=      5-min Rain = 0
KTIS 240905Z 33001KT 05/03 A3001 RMK A01 T00450030  RH  092%=      5-min Rain = 0
KTIS 240910Z 33002KT 04/03 A3001 RMK A01 T00430029  RH  092%=      5-min Rain = 0
KTIS 240915Z 14003KT 04/03 A30 RMK A01 T00420028  RH  092%=      5-min Rain = 0
KTIS 240920Z 14001KT 04/03 A30 RMK A01 T00400027  RH  093%=      5-min Rain = 0
KTIS 240925Z 14002KT 04/03 A2999 RMK A01 T00400027  RH  093%=      5-min Rain = 0
KTIS 240930Z 14003KT 04/03 A30 RMK A01 T00410029  RH  094%=      5-min Rain = 0
KTIS 240935Z 14002KT 04/03 A30 RMK A01 T00410029  RH  094%=      5-min Rain = 0
KTIS 240940Z 14003KT 04/03 A30 RMK A01 T00410030  RH  094%=      5-min Rain = 0
KTIS 240945Z 15002KT 04/03 A30 RMK A01 T00400028  RH  094%=      5-min Rain = 0
KTIS 240950Z 15004KT 04/03 A30 RMK A01 T00390028  RH  094%=      5-min Rain = 0
KTIS 240955Z 16005KT 04/03 A30 RMK A01 T00390028  RH  094%=      5-min Rain = 0
KTIS 241000Z 16008KT 04/03 A3001 RMK A01 T00410031  RH  095%=      5-min Rain = 0
KTIS 241005Z 17007KT 04/03 A3002 RMK A01 T00440033  RH  095%=      5-min Rain = 0
KTIS 241010Z 17006KT 05/04 A3001 RMK A01 T00460035  RH  094%=      5-min Rain = 0
KTIS 241015Z 18006KT 05/03 A3001 RMK A01 T00460034  RH  094%=      5-min Rain = 0
KTIS 241020Z 20006KT 05/03 A3002 RMK A01 T00460033  RH  093%=      5-min Rain = 0
KTIS 241025Z 21006KT 05/03 A3002 RMK A01 T00460033  RH  093%=      5-min Rain = 0
KTIS 241030Z 22004KT 05/03 A3001 RMK A01 T00460033  RH  093%=      5-min Rain = 0
KTIS 241035Z 25003KT 04/03 A30 RMK A01 T00440031  RH  093%=      5-min Rain = 0
KTIS 241040Z 26003KT 04/03 A30 RMK A01 T00410027  RH  092%=      5-min Rain = 0
KTIS 241045Z 24004KT 04/03 A30 RMK A01 T00400028  RH  093%=      5-min Rain = 0
KTIS 241050Z 29004KT 04/03 A2999 RMK A01 T00390026  RH  093%=      5-min Rain = 0
KTIS 241055Z 31004KT 03/02 A2999 RMK A01 T00340022  RH  093%=      5-min Rain = 0
KTIS 241100Z 30004KT 04/03 A30 RMK A01 T00380026  RH  094%=      5-min Rain = 0
KTIS 241105Z 30004KT 04/03 A30 RMK A01 T00380026  RH  094%=      5-min Rain = 0
KTIS 241110Z 27003KT 04/03 A30 RMK A01 T00380027  RH  094%=      5-min Rain = 0
KTIS 241115Z 24004KT 04/03 A30 RMK A01 T00370026  RH  094%=      5-min Rain = 0
KTIS 241120Z 22005KT 04/03 A30 RMK A01 T00370026  RH  094%=      5-min Rain = 0
KTIS 241125Z 24006KT 04/03 A30 RMK A01 T00400029  RH  095%=      5-min Rain = 0
KTIS 241130Z 25004KT 04/03 A2999 RMK A01 T00410030  RH  094%=      5-min Rain = 0
KTIS 241135Z 26004KT 04/03 A2999 RMK A01 T00400029  RH  094%=      5-min Rain = 0
KTIS 241140Z 29006KT 04/03 A2999 RMK A01 T00390026  RH  093%=      5-min Rain = 0
KTIS 241145Z 30006KT 04/03 A2998 RMK A01 T00370025  RH  093%=      5-min Rain = 0
KTIS 241150Z 28004KT 04/02 A2999 RMK A01 T00350022  RH  093%=      5-min Rain = 0
KTIS 241155Z 28004KT 03/02 A2999 RMK A01 T00340022  RH  093%=      5-min Rain = 0
KTIS 241200Z 28005KT 03/02 A2999 RMK A01 T00330021  RH  093%=      5-min Rain = 0
KTIS 241205Z 28006KT 03/02 A2999 RMK A01 T00320021  RH  094%=      5-min Rain = 0
KTIS 241210Z 28007KT 03/02 A30 RMK A01 T00330022  RH  094%=      5-min Rain = 0
KTIS 241215Z 26006KT 04/03 A30 RMK A01 T00360025  RH  094%=      5-min Rain = 0
KTIS 241220Z 26006KT 04/03 A30 RMK A01 T00370025  RH  094%=      5-min Rain = 0
KTIS 241225Z 28007KT 04/03 A30 RMK A01 T00380026  RH  094%=      5-min Rain = 0
KTIS 241230Z 27006KT 04/03 A30 RMK A01 T00390026  RH  093%=      5-min Rain = 0
KTIS 241235Z 26004KT 04/03 A3001 RMK A01 T00390027  RH  093%=      5-min Rain = 0
KTIS 241240Z 27004KT 04/03 A3001 RMK A01 T00400027  RH  093%=      5-min Rain = 0
KTIS 241245Z 27004KT 04/03 A3001 RMK A01 T00410028  RH  093%=      5-min Rain = 0
KTIS 241250Z 25004KT 04/03 A3001 RMK A01 T00420029  RH  093%=      5-min Rain = 0
KTIS 241255Z 27005KT 05/03 A3001 RMK A01 T00460033  RH  093%=      5-min Rain = 0
KTIS 241300Z 28005KT 05/04 A3001 RMK A01 T00500036  RH  092%=      5-min Rain = 0
KTIS 241305Z 29007KT 06/04 A3001 RMK A01 T00550039  RH  091%=      5-min Rain = 0
KTIS 241310Z 28006KT 06/04 A3001 RMK A01 T00590041  RH  090%=      5-min Rain = 0
KTIS 241315Z 29006KT 06/04 A3001 RMK A01 T00620043  RH  089%=      5-min Rain = 0
KTIS 241320Z 29006KT 07/05 A3001 RMK A01 T00660045  RH  089%=      5-min Rain = 0
KTIS 241325Z 29007KT 07/05 A3002 RMK A01 T00710049  RH  088%=      5-min Rain = 0
KTIS 241330Z 29005KT 07/05 A3002 RMK A01 T00730049  RH  087%=      5-min Rain = 0
KTIS 241335Z 29003KT 08/05 A3002 RMK A01 T00750050  RH  086%=      5-min Rain = 0
KTIS 241340Z 29004KT 08/05 A3002 RMK A01 T00780050  RH  084%=      5-min Rain = 0
KTIS 241345Z 29005KT 08/05 A3001 RMK A01 T00800050  RH  083%=      5-min Rain = 0
KTIS 241350Z 29004KT 08/05 A3002 RMK A01 T00800048  RH  082%=      5-min Rain = 0
KTIS 241355Z 27004KT 08/05 A3002 RMK A01 T00820048  RH  081%=      5-min Rain = 0
KTIS 241400Z 28006KT 08/05 A3002 RMK A01 T00840049  RH  080%=      5-min Rain = 0
KTIS 241405Z 28006KT 09/05 A3001 RMK A01 T00850047  RH  078%=      5-min Rain = 0
KTIS 241410Z 28005KT 09/05 A3001 RMK A01 T00880050  RH  079%=      5-min Rain = 0
KTIS 241415Z 29006KT 09/05 A3001 RMK A01 T00930054  RH  078%=      5-min Rain = 0
KTIS 241420Z 28006KT 10/06 A3001 RMK A01 T00970056  RH  077%=      5-min Rain = 0
KTIS 241425Z 28006KT 10/06 A3001 RMK A01 T01000055  RH  075%=      5-min Rain = 0
KTIS 241430Z 29007KT 10/06 A3001 RMK A01 T01030056  RH  074%=      5-min Rain = 0
KTIS 241435Z 28006KT 11/06 A30 RMK A01 T01060056  RH  073%=      5-min Rain = 0
KTIS 241440Z 28006KT 11/06 A30 RMK A01 T01090057  RH  072%=      5-min Rain = 0
KTIS 241445Z 28007KT 11/06 A30 RMK A01 T01120059  RH  071%=      5-min Rain = 0
KTIS 241450Z 29008KT 12/06 A30 RMK A01 T01160059  RH  070%=      5-min Rain = 0
KTIS 241455Z 29009KT 12/06 A2999 RMK A01 T01180059  RH  069%=      5-min Rain = 0
KTIS 241500Z 30011KT 12/06 A2998 RMK A01 T01190060  RH  069%=      5-min Rain = 0
KTIS 241505Z 30010KT 12/06 A2998 RMK A01 T01200061  RH  069%=      5-min Rain = 0
KTIS 241510Z 29010KT 12/06 A2998 RMK A01 T01230061  RH  067%=      5-min Rain = 0
KTIS 241515Z 28008KT 13/06 A2999 RMK A01 T01260061  RH  067%=      5-min Rain = 0
KTIS 241520Z 28006KT 13/06 A2999 RMK A01 T01280064  RH  067%=      5-min Rain = 0
KTIS 241525Z 28007KT 13/07 A2999 RMK A01 T01290066  RH  067%=      5-min Rain = 0
KTIS 241530Z 28007KT 13/06 A2999 RMK A01 T01290062  RH  065%=      5-min Rain = 0
KTIS 241535Z 28007KT 13/06 A2999 RMK A01 T01320064  RH  065%=      5-min Rain = 0
KTIS 241540Z 29006KT 13/06 A2999 RMK A01 T01330062  RH  064%=      5-min Rain = 0
KTIS 241545Z 28007KT 14/07 A2999 RMK A01 T01360066  RH  064%=      5-min Rain = 0
KTIS 241550Z 30007KT 14/07 A30 RMK A01 T01390067  RH  063%=      5-min Rain = 0
KTIS 241555Z 32007KT 14/07 A30 RMK A01 T01410067  RH  063%=      5-min Rain = 0
KTIS 241600Z 29007KT 14/07 A30 RMK A01 T01400066  RH  062%=      5-min Rain = 0
KTIS 241605Z 31007KT 14/07 A30 RMK A01 T01430068  RH  063%=      5-min Rain = 0
KTIS 241610Z 31006KT 14/07 A3001 RMK A01 T01440070  RH  063%=      5-min Rain = 0
KTIS 241615Z 30007KT 15/07 A3001 RMK A01 T01450068  RH  062%=      5-min Rain = 0
KTIS 241620Z 31009KT 15/07 A3001 RMK A01 T01460071  RH  062%=      5-min Rain = 0
KTIS 241625Z 30006KT 15/07 A3001 RMK A01 T01470071  RH  062%=      5-min Rain = 0
KTIS 241630Z 31005KT 15/07 A3001 RMK A01 T01490074  RH  062%=      5-min Rain = 0
KTIS 241635Z 30005KT 15/07 A3001 RMK A01 T01500074  RH  062%=      5-min Rain = 0
KTIS 241640Z 30007KT 15/08 A3001 RMK A01 T01510076  RH  062%=      5-min Rain = 0
KTIS 241645Z 32003G8KT 15/07 A3001 RMK A01 T01510074  RH  061%=      5-min Rain = 0
KTIS 241650Z 33006KT 15/07 A30 RMK A01 T01540074  RH  060%=      5-min Rain = 0
KTIS 241655Z 30002G7KT 15/07 A30 RMK A01 T01530071  RH  060%=      5-min Rain = 0
KTIS 241700Z 30006KT 16/07 A30 RMK A01 T01560071  RH  058%=      5-min Rain = 0
KTIS 241705Z 30005KT 16/07 A30 RMK A01 T01560072  RH  059%=      5-min Rain = 0
KTIS 241710Z 28004KT 16/07 A2999 RMK A01 T01560074  RH  060%=      5-min Rain = 0
KTIS 241715Z 34006G11KT 16/07 A2999 RMK A01 T01590074  RH  058%=      5-min Rain = 0
KTIS 241720Z 35004KT 16/08 A2999 RMK A01 T01600075  RH  059%=      5-min Rain = 0
KTIS 241725Z 31007KT 16/08 A2998 RMK A01 T01640077  RH  058%=      5-min Rain = 0
KTIS 241730Z 31007G12KT 16/08 A2998 RMK A01 T01630076  RH  058%=      5-min Rain = 0
KTIS 241735Z 30005KT 16/08 A2998 RMK A01 T01630075  RH  058%=      5-min Rain = 0
KTIS 241740Z 34005KT 17/08 A2998 RMK A01 T01650076  RH  057%=      5-min Rain = 0
KTIS 241745Z 29005G10KT 17/07 A2998 RMK A01 T01660074  RH  056%=      5-min Rain = 0
KTIS 241750Z 31005G10KT 17/07 A2997 RMK A01 T01650072  RH  056%=      5-min Rain = 0
KTIS 241755Z 01004KT 17/07 A2997 RMK A01 T01670073  RH  055%=      5-min Rain = 0
KTIS 241800Z 33005KT 17/08 A2997 RMK A01 T01690079  RH  057%=      5-min Rain = 0
KTIS 241805Z 34005KT 17/07 A2997 RMK A01 T01700071  RH  054%=      5-min Rain = 0
KTIS 241810Z 31004G9KT 17/07 A2997 RMK A01 T01710072  RH  053%=      5-min Rain = 0
KTIS 241815Z 31005KT 17/08 A2997 RMK A01 T01740075  RH  054%=      5-min Rain = 0
KTIS 241820Z 30004KT 18/08 A2997 RMK A01 T01760075  RH  053%=      5-min Rain = 0
KTIS 241825Z 22001KT 17/07 A2997 RMK A01 T01730065  RH  050%=      5-min Rain = 0
KTIS 241830Z 31004KT 17/07 A2997 RMK A01 T01740071  RH  052%=      5-min Rain = 0
KTIS 241835Z 33002KT 18/07 A2996 RMK A01 T01760071  RH  051%=      5-min Rain = 0
KTIS 241840Z 32005KT 18/07 A2996 RMK A01 T01790072  RH  051%=      5-min Rain = 0
KTIS 241845Z 34002G7KT 18/07 A2996 RMK A01 T01770071  RH  051%=      5-min Rain = 0
KTIS 241850Z 33004KT 18/07 A2996 RMK A01 T01790071  RH  051%=      5-min Rain = 0
KTIS 241855Z 31003KT 18/08 A2996 RMK A01 T01810075  RH  051%=      5-min Rain = 0
KTIS 241900Z 24004KT 18/07 A2995 RMK A01 T01830073  RH  050%=      5-min Rain = 0
KTIS 241905Z 32004KT 18/07 A2995 RMK A01 T01830072  RH  050%=      5-min Rain = 0
KTIS 241910Z 27003KT 18/07 A2995 RMK A01 T01800069  RH  050%=      5-min Rain = 0
KTIS 241915Z 30006KT 18/08 A2995 RMK A01 T01800079  RH  053%=      5-min Rain = 0
KTIS 241920Z 29005G11KT 18/08 A2995 RMK A01 T01820078  RH  052%=      5-min Rain = 0
KTIS 241925Z 28004KT 18/07 A2994 RMK A01 T01830073  RH  050%=      5-min Rain = 0
KTIS 241930Z 27004KT 19/07 A2994 RMK A01 T01850072  RH  049%=      5-min Rain = 0
KTIS 241935Z 28006G11KT 19/08 A2994 RMK A01 T01880075  RH  049%=      5-min Rain = 0
KTIS 241940Z 25003KT 19/07 A2993 RMK A01 T01860070  RH  048%=      5-min Rain = 0
KTIS 241945Z 33004KT 19/07 A2993 RMK A01 T01860071  RH  048%=      5-min Rain = 0
KTIS 241950Z 33005KT 19/08 A2993 RMK A01 T01900075  RH  049%=      5-min Rain = 0
KTIS 241955Z 30004KT 19/07 A2993 RMK A01 T01890073  RH  048%=      5-min Rain = 0
KTIS 242000Z 28007KT 19/07 A2993 RMK A01 T01880074  RH  049%=      5-min Rain = 0
KTIS 242005Z 29007KT 19/07 A2993 RMK A01 T01850073  RH  049%=      5-min Rain = 0
KTIS 242010Z 29003KT 19/08 A2992 RMK A01 T01920076  RH  048%=      5-min Rain = 0
KTIS 242015Z 27004G9KT 19/07 A2992 RMK A01 T01940070  RH  046%=      5-min Rain = 0
KTIS 242020Z 26004KT 20/08 A2992 RMK A01 T01970075  RH  047%=      5-min Rain = 0
KTIS 242025Z 25005G10KT 20/07 A2992 RMK A01 T01950070  RH  045%=      5-min Rain = 0
KTIS 242030Z 26004KT 19/07 A2992 RMK A01 T01900070  RH  047%=      5-min Rain = 0
KTIS 242035Z 31003KT 19/07 A2992 RMK A01 T01910072  RH  047%=      5-min Rain = 0
KTIS 242040Z 30005KT 19/07 A2991 RMK A01 T01920073  RH  047%=      5-min Rain = 0
KTIS 242045Z 32002KT 19/07 A2991 RMK A01 T01870066  RH  046%=      5-min Rain = 0
KTIS 242050Z 32001KT 19/06 A2991 RMK A01 T01890064  RH  045%=      5-min Rain = 0
KTIS 242055Z 23005KT 19/07 A2991 RMK A01 T01940068  RH  045%=      5-min Rain = 0
KTIS 242100Z 20004KT 19/07 A2991 RMK A01 T01930070  RH  046%=      5-min Rain = 0
KTIS 242105Z 18003KT 20/07 A2991 RMK A01 T01970070  RH  045%=      5-min Rain = 0
KTIS 242110Z 20004KT 20/07 A299 RMK A01 T01990069  RH  044%=      5-min Rain = 0
KTIS 242115Z 19002KT 20/07 A299 RMK A01 T02000067  RH  043%=      5-min Rain = 0
KTIS 242120Z 25002KT 20/07 A299 RMK A01 T01970065  RH  043%=      5-min Rain = 0
KTIS 242125Z 18001KT 19/06 A299 RMK A01 T01940064  RH  044%=      5-min Rain = 0
KTIS 242130Z 21005KT 20/07 A2989 RMK A01 T01980073  RH  045%=      5-min Rain = 0
KTIS 242135Z 28006KT 20/07 A2989 RMK A01 T01990073  RH  045%=      5-min Rain = 0
KTIS 242140Z 31004KT 21/07 A2989 RMK A01 T02060070  RH  042%=      5-min Rain = 0
KTIS 242145Z 30004KT 21/07 A2989 RMK A01 T02070069  RH  042%=      5-min Rain = 0
KTIS 242150Z 32003KT 20/07 A2989 RMK A01 T02040065  RH  041%=      5-min Rain = 0
KTIS 242155Z 28005G10KT 21/07 A2988 RMK A01 T02080071  RH  042%=      5-min Rain = 0
KTIS 242200Z 26006KT 20/07 A2988 RMK A01 T02040070  RH  043%=      5-min Rain = 0
KTIS 242205Z 25004KT 20/07 A2988 RMK A01 T01990068  RH  043%=      5-min Rain = 0
KTIS 242210Z 25004KT 21/07 A2988 RMK A01 T02050070  RH  043%=      5-min Rain = 0
KTIS 242215Z 27002KT 21/07 A2988 RMK A01 T02080066  RH  041%=      5-min Rain = 0
KTIS 242220Z 32003KT 21/07 A2988 RMK A01 T02070068  RH  042%=      5-min Rain = 0
KTIS 242225Z 32007KT 21/07 A2988 RMK A01 T02100069  RH  041%=      5-min Rain = 0
KTIS 242230Z 31007G12KT 21/07 A2988 RMK A01 T02090069  RH  041%=      5-min Rain = 0
KTIS 242235Z 30007KT 21/07 A2988 RMK A01 T02050068  RH  042%=      5-min Rain = 0
KTIS 242240Z 32005KT 21/07 A2987 RMK A01 T02060069  RH  042%=      5-min Rain = 0
KTIS 242245Z 26003KT 21/07 A2987 RMK A01 T02070068  RH  041%=      5-min Rain = 0
KTIS 242250Z 00004KT 21/07 A2987 RMK A01 T02100070  RH  041%=      5-min Rain = 0
KTIS 242255Z 35006KT 21/07 A2987 RMK A01 T02100070  RH  041%=      5-min Rain = 0
KTIS 242300Z 00006KT 20/07 A2987 RMK A01 T02030071  RH  043%=      5-min Rain = 0
KTIS 242305Z 02004KT 20/07 A2987 RMK A01 T02000065  RH  042%=      5-min Rain = 0
KTIS 242310Z 33006KT 21/07 A2988 RMK A01 T02060066  RH  041%=      5-min Rain = 0
KTIS 242315Z 34005KT 21/07 A2988 RMK A01 T02080065  RH  040%=      5-min Rain = 0
KTIS 242320Z 36003KT 21/07 A2988 RMK A01 T02070066  RH  041%=      5-min Rain = 0
KTIS 242325Z 33003KT 21/06 A2988 RMK A01 T02080063  RH  040%=      5-min Rain = 0
KTIS 242330Z 33004KT 21/06 A2987 RMK A01 T02090063  RH  040%=      5-min Rain = 0
KTIS 242335Z 30006KT 21/07 A2987 RMK A01 T02110070  RH  041%=      5-min Rain = 0
KTIS 242340Z 30006KT 21/07 A2987 RMK A01 T02090071  RH  042%=      5-min Rain = 0
KTIS 242345Z 30005KT 21/07 A2987 RMK A01 T02100073  RH  042%=      5-min Rain = 0
KTIS 242350Z 31005KT 21/07 A2987 RMK A01 T02110073  RH  042%=      5-min Rain = 0
KTIS 242355Z 31006KT 21/07 A2987 RMK A01 T02080071  RH  042%=      5-min Rain = 0
KTIS 250000Z 34005KT 21/08 A2987 RMK A01 T02060075  RH  044%=      5-min Rain = 0
KTIS 250005Z 35005KT 20/07 A2987 RMK A01 T02010073  RH  045%=      5-min Rain = 0
KTIS 250010Z 36007KT 20/07 A2987 RMK A01 T01990072  RH  045%=      5-min Rain = 0
KTIS 250015Z 35005KT 20/07 A2987 RMK A01 T02030069  RH  043%=      5-min Rain = 0
KTIS 250020Z 35005KT 21/07 A2987 RMK A01 T02060074  RH  043%=      5-min Rain = 0
KTIS 250025Z 36008KT 20/07 A2987 RMK A01 T02030072  RH  044%=      5-min Rain = 0
KTIS 250030Z 35008KT 20/07 A2987 RMK A01 T02010074  RH  045%=      5-min Rain = 0
KTIS 250035Z 34007KT 20/08 A2987 RMK A01 T02000075  RH  046%=      5-min Rain = 0
KTIS 250040Z 34007KT 20/08 A2987 RMK A01 T01980077  RH  047%=      5-min Rain = 0
KTIS 250045Z 35007KT 20/08 A2987 RMK A01 T01950081  RH  049%=      5-min Rain = 0
KTIS 250050Z 35007KT 19/08 A2987 RMK A01 T01920082  RH  051%=      5-min Rain = 0
KTIS 250055Z 35007KT 19/08 A2987 RMK A01 T01880083  RH  052%=      5-min Rain = 0
KTIS 250100Z 34007KT 19/08 A2987 RMK A01 T01850082  RH  053%=      5-min Rain = 0
KTIS 250105Z 34007KT 18/09 A2987 RMK A01 T01780086  RH  056%=      5-min Rain = 0
KTIS 250110Z 34006KT 17/09 A2987 RMK A01 T01730087  RH  059%=      5-min Rain = 0
KTIS 250115Z 34005KT 17/09 A2987 RMK A01 T01660089  RH  062%=      5-min Rain = 0
KTIS 250120Z 35006KT 16/09 A2987 RMK A01 T01600090  RH  065%=      5-min Rain = 0
KTIS 250125Z 35006KT 16/09 A2987 RMK A01 T01570091  RH  067%=      5-min Rain = 0
KTIS 250130Z 35006KT 15/09 A2987 RMK A01 T01520090  RH  069%=      5-min Rain = 0
KTIS 250135Z 35006KT 15/09 A2988 RMK A01 T01470089  RH  070%=      5-min Rain = 0
KTIS 250140Z 35006KT 14/09 A2988 RMK A01 T01430088  RH  072%=      5-min Rain = 0
KTIS 250145Z 35006KT 14/09 A2988 RMK A01 T01440086  RH  070%=      5-min Rain = 0
KTIS 250150Z 35005KT 15/09 A2988 RMK A01 T01450087  RH  070%=      5-min Rain = 0
KTIS 250155Z 35005KT 15/09 A2988 RMK A01 T01460085  RH  069%=      5-min Rain = 0
KTIS 250200Z 35005KT 15/09 A2988 RMK A01 T01470085  RH  068%=      5-min Rain = 0
KTIS 250205Z 35005KT 14/09 A2988 RMK A01 T01440085  RH  070%=      5-min Rain = 0
KTIS 250210Z 35005KT 14/08 A2988 RMK A01 T01400081  RH  069%=      5-min Rain = 0
KTIS 250215Z 35005KT 14/08 A2989 RMK A01 T01380080  RH  070%=      5-min Rain = 0
KTIS 250220Z 35005KT 14/08 A2989 RMK A01 T01380079  RH  070%=      5-min Rain = 0
KTIS 250225Z 35005KT 14/08 A2989 RMK A01 T01390079  RH  069%=      5-min Rain = 0
KTIS 250230Z 35005KT 14/08 A2989 RMK A01 T01350079  RH  071%=      5-min Rain = 0
KTIS 250235Z 35005KT 13/08 A2989 RMK A01 T01300079  RH  073%=      5-min Rain = 0
KTIS 250240Z 35004KT 13/08 A2989 RMK A01 T01270079  RH  075%=      5-min Rain = 0
KTIS 250245Z 34004KT 13/08 A2989 RMK A01 T01270081  RH  076%=      5-min Rain = 0
KTIS 250250Z 34004KT 13/08 A2989 RMK A01 T01290083  RH  076%=      5-min Rain = 0
KTIS 250255Z 33004KT 13/08 A2989 RMK A01 T01310083  RH  074%=      5-min Rain = 0
KTIS 250300Z 32004KT 14/08 A2989 RMK A01 T01350078  RH  071%=      5-min Rain = 0
KTIS 250305Z 32004KT 14/08 A2989 RMK A01 T01370078  RH  069%=      5-min Rain = 0
KTIS 250310Z 31004KT 14/08 A2989 RMK A01 T01370079  RH  070%=      5-min Rain = 0
KTIS 250315Z 31005KT 14/08 A2989 RMK A01 T01360077  RH  070%=      5-min Rain = 0
KTIS 250320Z 31005KT 14/08 A2989 RMK A01 T01350077  RH  070%=      5-min Rain = 0
KTIS 250325Z 31006KT 13/08 A2989 RMK A01 T01320077  RH  071%=      5-min Rain = 0
KTIS 250330Z 31006KT 13/08 A299 RMK A01 T01310077  RH  072%=      5-min Rain = 0
KTIS 250335Z 31005KT 13/08 A299 RMK A01 T01310075  RH  071%=      5-min Rain = 0
KTIS 250340Z 31005KT 13/08 A299 RMK A01 T01290077  RH  073%=      5-min Rain = 0
KTIS 250345Z 30005KT 13/08 A299 RMK A01 T01260078  RH  075%=      5-min Rain = 0
KTIS 250350Z 30005KT 13/08 A299 RMK A01 T01260079  RH  075%=      5-min Rain = 0
KTIS 250355Z 30004KT 12/08 A299 RMK A01 T01240078  RH  075%=      5-min Rain = 0
KTIS 250400Z 30004KT 13/08 A299 RMK A01 T01250077  RH  074%=      5-min Rain = 0
KTIS 250405Z 30004KT 13/08 A299 RMK A01 T01310077  RH  072%=      5-min Rain = 0
KTIS 250410Z 30005KT 13/08 A299 RMK A01 T01310077  RH  072%=      5-min Rain = 0
KTIS 250415Z 30005KT 13/08 A299 RMK A01 T01310075  RH  071%=      5-min Rain = 0
KTIS 250420Z 29005KT 13/08 A2989 RMK A01 T01270077  RH  074%=      5-min Rain = 0
KTIS 250425Z 27005KT 12/08 A2989 RMK A01 T01190078  RH  078%=      5-min Rain = 0
KTIS 250430Z 27004KT 12/08 A2989 RMK A01 T01180078  RH  079%=      5-min Rain = 0
KTIS 250435Z 27005KT 12/08 A2989 RMK A01 T01170079  RH  080%=      5-min Rain = 0
KTIS 250440Z 27005KT 11/08 A2989 RMK A01 T01140079  RH  081%=      5-min Rain = 0
KTIS 250445Z 27006KT 11/08 A2989 RMK A01 T01130079  RH  082%=      5-min Rain = 0
KTIS 250450Z 26004KT 11/08 A2989 RMK A01 T01130078  RH  081%=      5-min Rain = 0
KTIS 250455Z 26004KT 11/08 A2989 RMK A01 T01090076  RH  082%=      5-min Rain = 0

Page generated in 0.0109 seconds.